Time;durP1;ratioP1;P1;durP2;ratioP2;P2;SDS_P1;SDS_P2;PMS_P1;PMS_P2;Temp;Humidity;BMP_temperature;BMP_pressure;BME280_temperature;BME280_humidity;BME280_pressure;Samples;Min_cycle;Max_cycle;Signal;HPM_P1;HPM_P2
2023/11/18 00:00:26;;;;;;;11.23;2.30;;;8.80;99.90;;;;;;5083397;28;20044;-67
2023/11/18 00:02:53;;;;;;;8.40;2.70;;;8.80;99.90;;;;;;5081275;28;20044;-66
2023/11/18 00:05:21;;;;;;;11.02;2.40;;;8.80;99.90;;;;;;5073645;28;20053;-65
2023/11/18 00:07:48;;;;;;;7.55;1.90;;;8.80;99.90;;;;;;5078552;28;20048;-66
2023/11/18 00:10:14;;;;;;;8.73;1.98;;;8.80;99.90;;;;;;5092157;28;20048;-66
2023/11/18 00:12:41;;;;;;;6.18;1.80;;;8.80;99.90;;;;;;5091478;28;20041;-67
2023/11/18 00:15:10;;;;;;;8.18;1.85;;;8.80;99.90;;;;;;5095288;28;20036;-66
2023/11/18 00:17:37;;;;;;;5.80;1.90;;;8.80;99.90;;;;;;5094105;28;20119;-66
2023/11/18 00:20:09;;;;;;;10.32;2.35;;;8.70;99.90;;;;;;5074073;28;20052;-66
2023/11/18 00:22:35;;;;;;;8.63;2.00;;;8.70;99.90;;;;;;5076067;28;20115;-60
2023/11/18 00:25:05;;;;;;;11.35;2.05;;;8.70;99.90;;;;;;5077314;28;20044;-60
2023/11/18 00:27:31;;;;;;;9.65;2.20;;;8.70;99.90;;;;;;5094574;28;20048;-59
2023/11/18 00:29:58;;;;;;;10.63;2.45;;;8.70;99.90;;;;;;5094319;28;20059;-60
2023/11/18 00:32:25;;;;;;;10.70;2.67;;;8.70;99.90;;;;;;5092462;28;20040;-59
2023/11/18 00:34:52;;;;;;;8.38;2.80;;;8.70;99.90;;;;;;5094291;28;20054;-59
2023/11/18 00:37:19;;;;;;;11.18;2.65;;;8.70;99.90;;;;;;5096304;28;20039;-59
2023/11/18 00:39:46;;;;;;;16.13;3.33;;;8.70;99.90;;;;;;5096090;28;20039;-59
2023/11/18 00:42:12;;;;;;;8.77;2.63;;;8.70;99.90;;;;;;5095629;28;20377;-59
2023/11/18 00:44:41;;;;;;;14.40;3.10;;;8.70;99.90;;;;;;5095791;28;20052;-59
2023/11/18 00:47:08;;;;;;;9.38;2.83;;;8.70;99.90;;;;;;5077620;28;20088;-59
2023/11/18 00:49:35;;;;;;;18.52;3.08;;;8.70;99.90;;;;;;5094713;28;20485;-59
2023/11/18 00:52:03;;;;;;;12.30;2.90;;;8.80;99.90;;;;;;5094586;28;20500;-59
2023/11/18 00:54:30;;;;;;;10.95;2.92;;;8.70;99.90;;;;;;5096176;28;20043;-59
2023/11/18 00:56:57;;;;;;;10.15;2.72;;;8.80;99.90;;;;;;5077167;28;20556;-60
2023/11/18 00:59:23;;;;;;;11.57;2.92;;;8.70;99.90;;;;;;5095091;28;20036;-60
2023/11/18 01:01:50;;;;;;;11.27;2.75;;;8.70;99.90;;;;;;5094138;28;20040;-60
2023/11/18 01:04:18;;;;;;;8.50;2.35;;;8.80;99.90;;;;;;5095309;28;20040;-60
2023/11/18 01:06:44;;;;;;;12.85;2.55;;;8.70;99.90;;;;;;5093920;28;20052;-60
2023/11/18 01:09:12;;;;;;;10.82;3.25;;;8.70;99.90;;;;;;5095205;28;20093;-60
2023/11/18 01:11:39;;;;;;;8.02;2.85;;;8.70;99.90;;;;;;5095362;28;20033;-59
2023/11/18 01:14:25;;;;;;;9.07;2.72;;;8.70;99.90;;;;;;5094192;28;20040;-59
2023/11/18 01:16:52;;;;;;;10.27;2.80;;;8.60;99.90;;;;;;5094264;28;20115;-59
2023/11/18 01:19:20;;;;;;;13.27;2.95;;;8.60;99.90;;;;;;5094828;28;20477;-59
2023/11/18 01:21:47;;;;;;;12.57;2.92;;;8.60;99.90;;;;;;5093791;28;20507;-59
2023/11/18 01:24:15;;;;;;;8.20;2.33;;;8.60;99.90;;;;;;5093862;28;20047;-59
2023/11/18 01:26:45;;;;;;;13.32;2.65;;;8.60;99.90;;;;;;5093608;28;20036;-59
2023/11/18 01:29:13;;;;;;;5.93;2.08;;;8.60;99.90;;;;;;5093428;28;20413;-59
2023/11/18 01:31:43;;;;;;;6.30;2.05;;;8.60;99.90;;;;;;5093780;28;20044;-60
2023/11/18 01:34:21;;;;;;;8.32;2.20;;;8.60;99.90;;;;;;5093928;28;20055;-59
2023/11/18 01:36:51;;;;;;;5.40;1.90;;;8.60;99.90;;;;;;5095147;28;20071;-60
2023/11/18 01:39:18;;;;;;;7.50;1.95;;;8.70;99.90;;;;;;5094678;28;20040;-59
2023/11/18 01:41:45;;;;;;;7.63;2.45;;;8.70;99.90;;;;;;5093522;28;20036;-59
2023/11/18 01:44:15;;;;;;;8.30;1.95;;;8.70;99.90;;;;;;5076657;28;20048;-59
2023/11/18 01:46:45;;;;;;;8.57;2.53;;;8.70;99.90;;;;;;5093486;28;20139;-59
2023/11/18 01:49:13;;;;;;;7.15;2.13;;;8.70;99.90;;;;;;5093104;28;20047;-60
2023/11/18 01:51:41;;;;;;;8.07;2.15;;;8.70;99.90;;;;;;5093075;28;20036;-59
2023/11/18 01:54:08;;;;;;;6.50;1.98;;;8.70;99.90;;;;;;5094618;28;20028;-59
2023/11/18 01:56:34;;;;;;;9.82;2.25;;;8.70;99.90;;;;;;5093552;28;20040;-59
2023/11/18 01:59:04;;;;;;;8.90;2.33;;;8.70;99.90;;;;;;5092779;28;20044;-60
2023/11/18 02:01:31;;;;;;;6.70;2.10;;;8.70;99.90;;;;;;5093084;28;20127;-60
2023/11/18 02:03:58;;;;;;;11.13;2.50;;;8.70;99.90;;;;;;5093365;28;20120;-59
2023/11/18 02:06:26;;;;;;;10.43;2.13;;;8.70;99.90;;;;;;5093005;28;20040;-59
2023/11/18 02:08:53;;;;;;;8.90;1.98;;;8.70;99.90;;;;;;5094438;28;20600;-60
2023/11/18 02:11:21;;;;;;;4.32;1.83;;;8.70;99.90;;;;;;5094047;28;20043;-60
2023/11/18 02:13:48;;;;;;;7.43;1.85;;;8.70;99.90;;;;;;5094099;28;20036;-60
2023/11/18 02:16:15;;;;;;;5.88;1.90;;;8.70;99.90;;;;;;5093008;28;20039;-60
2023/11/18 02:18:43;;;;;;;9.52;1.70;;;8.70;99.90;;;;;;5092828;28;20105;-60
2023/11/18 02:21:10;;;;;;;10.52;1.80;;;8.70;99.90;;;;;;5092753;28;20040;-60
2023/11/18 02:23:37;;;;;;;9.27;1.73;;;8.70;99.90;;;;;;5092722;28;20445;-67
2023/11/18 02:26:05;;;;;;;7.68;1.80;;;8.70;99.90;;;;;;5092562;28;20044;-66
2023/11/18 02:28:33;;;;;;;6.57;1.77;;;8.80;99.90;;;;;;5092213;28;20101;-66
2023/11/18 02:31:00;;;;;;;7.35;1.60;;;8.80;99.90;;;;;;5093740;28;20063;-66
2023/11/18 02:33:28;;;;;;;6.25;1.70;;;8.80;99.90;;;;;;5091940;28;20135;-67
2023/11/18 02:35:57;;;;;;;8.75;2.42;;;8.80;99.90;;;;;;5092129;28;20090;-65
2023/11/18 02:38:24;;;;;;;8.18;1.90;;;8.80;99.90;;;;;;5092100;28;20096;-67
2023/11/18 02:40:53;;;;;;;7.75;1.77;;;8.80;99.90;;;;;;5092436;28;20075;-67
2023/11/18 02:43:20;;;;;;;5.10;1.55;;;8.90;99.90;;;;;;5093442;28;20136;-67
2023/11/18 02:45:46;;;;;;;8.15;1.85;;;8.90;99.90;;;;;;5093492;28;20112;-60
2023/11/18 02:48:14;;;;;;;8.80;1.80;;;8.90;99.90;;;;;;5094335;28;20130;-67
2023/11/18 02:50:42;;;;;;;5.53;1.48;;;9.00;99.90;;;;;;5093892;28;20065;-66
2023/11/18 02:53:09;;;;;;;8.95;2.10;;;9.00;99.90;;;;;;5092830;28;20503;-67
2023/11/18 02:55:36;;;;;;;6.65;1.40;;;9.00;99.90;;;;;;5092694;28;20037;-67
2023/11/18 02:58:03;;;;;;;5.20;1.20;;;9.00;99.90;;;;;;5092284;28;20047;-67
2023/11/18 03:00:33;;;;;;;7.43;1.35;;;9.10;99.90;;;;;;5094567;28;20068;-68
2023/11/18 03:03:00;;;;;;;8.18;1.88;;;9.10;99.90;;;;;;5095923;28;20064;-67
2023/11/18 03:05:27;;;;;;;5.90;1.15;;;9.20;99.90;;;;;;5078764;28;20449;-68
2023/11/18 03:07:57;;;;;;;6.20;1.35;;;9.20;99.90;;;;;;5095916;28;20465;-68
2023/11/18 03:10:23;;;;;;;4.53;1.10;;;9.20;99.90;;;;;;5094029;28;20051;-68
2023/11/18 03:12:50;;;;;;;6.18;1.38;;;9.30;99.90;;;;;;5093046;28;20452;-67
2023/11/18 03:15:17;;;;;;;5.72;1.40;;;9.30;99.90;;;;;;5092421;28;20040;-67
2023/11/18 03:17:44;;;;;;;4.68;1.00;;;9.30;99.90;;;;;;5092260;28;20036;-67
2023/11/18 03:20:14;;;;;;;5.30;1.27;;;9.40;99.90;;;;;;5075228;28;20036;-68
2023/11/18 03:22:41;;;;;;;5.65;1.33;;;9.40;99.90;;;;;;5093296;28;20051;-67
2023/11/18 03:25:08;;;;;;;5.93;1.23;;;9.40;99.90;;;;;;5092262;28;20046;-67
2023/11/18 03:27:35;;;;;;;4.20;1.17;;;9.40;99.90;;;;;;5092153;28;20036;-67
2023/11/18 03:30:02;;;;;;;7.07;1.30;;;9.50;99.90;;;;;;5093368;28;20070;-67
2023/11/18 03:32:31;;;;;;;5.38;1.33;;;9.50;99.90;;;;;;5091672;28;20040;-66
2023/11/18 03:34:59;;;;;;;4.10;1.30;;;9.50;99.90;;;;;;5092713;28;20473;-67
2023/11/18 03:37:26;;;;;;;11.18;1.63;;;9.50;99.90;;;;;;5093613;28;20036;-66
2023/11/18 03:39:53;;;;;;;4.05;1.27;;;9.50;99.90;;;;;;5091876;28;20057;-59
2023/11/18 03:42:19;;;;;;;5.28;1.08;;;9.50;99.90;;;;;;5093083;28;20491;-61
2023/11/18 03:44:47;;;;;;;6.00;1.15;;;9.60;99.90;;;;;;5091901;28;20542;-59
2023/11/18 03:47:14;;;;;;;5.60;1.00;;;9.60;99.90;;;;;;5096877;28;20044;-60
2023/11/18 03:49:41;;;;;;;4.32;1.20;;;9.60;99.90;;;;;;5095347;28;20054;-59
2023/11/18 03:52:08;;;;;;;4.78;0.90;;;9.60;99.90;;;;;;5097089;28;20499;-60
2023/11/18 03:54:34;;;;;;;4.65;0.90;;;9.60;99.90;;;;;;5096944;28;20490;-60
2023/11/18 03:57:01;;;;;;;3.42;0.95;;;9.60;99.90;;;;;;5096416;28;20122;-60
2023/11/18 03:59:28;;;;;;;3.15;0.70;;;9.60;99.90;;;;;;5095149;28;20061;-59
2023/11/18 04:01:55;;;;;;;5.35;0.80;;;9.70;99.90;;;;;;5095261;28;20040;-59
2023/11/18 04:04:22;;;;;;;2.85;0.73;;;9.70;99.90;;;;;;5096779;28;20039;-60
2023/11/18 04:06:49;;;;;;;2.53;0.70;;;9.70;99.90;;;;;;5096623;28;20040;-60
2023/11/18 04:09:16;;;;;;;1.58;0.60;;;9.70;99.90;;;;;;5095302;28;20412;-60
2023/11/18 04:11:44;;;;;;;2.22;0.50;;;9.70;99.90;;;;;;5096784;28;20063;-60
2023/11/18 04:14:11;;;;;;;2.78;0.80;;;9.80;99.90;;;;;;5095500;28;20123;-59
2023/11/18 04:16:38;;;;;;;2.97;0.60;;;9.80;99.90;;;;;;5096877;28;20028;-61
2023/11/18 04:19:06;;;;;;;2.40;0.50;;;9.80;99.90;;;;;;5096747;28;20089;-60
2023/11/18 04:21:33;;;;;;;3.05;0.60;;;9.80;99.90;;;;;;5096377;28;20040;-61
2023/11/18 04:24:00;;;;;;;1.98;0.60;;;9.80;99.90;;;;;;5096383;28;20125;-60
2023/11/18 04:26:27;;;;;;;2.63;0.50;;;9.80;99.90;;;;;;5095211;28;20142;-60
2023/11/18 04:28:54;;;;;;;2.28;0.50;;;9.80;99.90;;;;;;5096189;28;20050;-60
2023/11/18 04:31:21;;;;;;;1.88;0.50;;;9.80;99.90;;;;;;5096157;28;20165;-61
2023/11/18 04:33:48;;;;;;;3.08;0.70;;;9.90;99.90;;;;;;5096240;28;20115;-61
2023/11/18 04:36:16;;;;;;;4.05;0.60;;;9.90;99.90;;;;;;5096065;28;20052;-59
2023/11/18 04:38:46;;;;;;;1.48;0.40;;;9.90;99.90;;;;;;5096118;28;20052;-60
2023/11/18 04:41:12;;;;;;;3.13;0.50;;;9.90;99.90;;;;;;5096291;28;20046;-60
2023/11/18 04:43:41;;;;;;;3.25;0.47;;;9.80;99.90;;;;;;5094569;28;20036;-60
2023/11/18 04:46:11;;;;;;;1.73;0.50;;;9.90;99.90;;;;;;5096020;28;20068;-60
2023/11/18 04:48:40;;;;;;;3.03;0.30;;;9.90;99.90;;;;;;5094672;28;20037;-59
2023/11/18 04:51:08;;;;;;;1.63;0.40;;;9.90;99.90;;;;;;5095737;28;20565;-60
2023/11/18 04:53:35;;;;;;;2.58;0.40;;;9.90;99.90;;;;;;5095964;28;20047;-61
2023/11/18 04:56:02;;;;;;;1.23;0.32;;;9.90;99.90;;;;;;5095595;28;20068;-60
2023/11/18 04:58:29;;;;;;;2.58;0.35;;;10.00;99.90;;;;;;5094842;28;20044;-60
2023/11/18 05:00:56;;;;;;;1.30;0.30;;;10.00;99.90;;;;;;5095627;28;20046;-60
2023/11/18 05:03:24;;;;;;;1.27;0.50;;;10.00;99.90;;;;;;5095298;28;20048;-60
2023/11/18 05:05:51;;;;;;;1.30;0.65;;;10.10;99.90;;;;;;5095753;28;20052;-60
2023/11/18 05:08:22;;;;;;;1.17;0.40;;;10.10;99.90;;;;;;5095502;28;20062;-59
2023/11/18 05:10:49;;;;;;;1.50;0.40;;;10.20;99.90;;;;;;5095337;28;20046;-60
2023/11/18 05:13:16;;;;;;;1.98;0.52;;;10.20;99.90;;;;;;5095241;28;20484;-60
2023/11/18 05:15:45;;;;;;;1.45;0.40;;;10.20;99.90;;;;;;5095206;28;20044;-59
2023/11/18 05:18:14;;;;;;;1.42;0.40;;;10.20;99.90;;;;;;5095351;28;20082;-60
2023/11/18 05:20:41;;;;;;;1.38;0.50;;;10.30;99.90;;;;;;5093817;28;20067;-59
2023/11/18 05:23:11;;;;;;;1.90;0.65;;;10.30;99.90;;;;;;5095210;28;20405;-60
2023/11/18 05:25:38;;;;;;;2.13;0.68;;;10.40;99.90;;;;;;5095475;28;20044;-60
2023/11/18 05:28:08;;;;;;;1.42;0.55;;;10.40;99.90;;;;;;5095014;28;20469;-60
2023/11/18 05:30:35;;;;;;;1.92;0.38;;;10.40;99.90;;;;;;5095391;28;20040;-60
2023/11/18 05:33:03;;;;;;;1.10;0.40;;;10.40;99.90;;;;;;5095152;28;20032;-61
2023/11/18 05:35:31;;;;;;;1.02;0.43;;;10.40;99.90;;;;;;5094933;28;20066;-60
2023/11/18 05:37:58;;;;;;;2.92;0.60;;;10.50;99.90;;;;;;5095178;28;20046;-60
2023/11/18 05:40:25;;;;;;;1.38;0.40;;;10.50;99.90;;;;;;5094712;28;20408;-60
2023/11/18 05:42:53;;;;;;;3.00;0.60;;;10.60;99.90;;;;;;5094901;28;20044;-60
2023/11/18 05:45:31;;;;;;;1.65;0.47;;;10.50;99.90;;;;;;5093959;28;20135;-59
2023/11/18 05:47:58;;;;;;;3.42;0.60;;;10.60;99.90;;;;;;5095172;28;20341;-60
2023/11/18 05:50:25;;;;;;;2.15;0.57;;;10.60;99.90;;;;;;5094584;28;20515;-60
2023/11/18 05:52:52;;;;;;;1.85;0.60;;;10.60;99.90;;;;;;5094463;28;20038;-60
2023/11/18 05:55:19;;;;;;;5.03;0.50;;;10.60;99.90;;;;;;5094685;28;20101;-60
2023/11/18 05:57:47;;;;;;;2.13;0.50;;;10.60;99.90;;;;;;5094659;28;20036;-60
2023/11/18 06:00:15;;;;;;;1.33;0.30;;;10.60;99.90;;;;;;5094622;28;20119;-60
2023/11/18 06:02:53;;;;;;;1.42;0.50;;;10.60;99.90;;;;;;5094867;28;20044;-61
2023/11/18 06:05:21;;;;;;;1.58;0.52;;;10.60;99.90;;;;;;5094365;28;20048;-60
2023/11/18 06:07:48;;;;;;;1.88;0.50;;;10.70;99.90;;;;;;5094591;28;20036;-60
2023/11/18 06:10:15;;;;;;;1.70;0.60;;;10.70;99.90;;;;;;5094447;28;20469;-60
2023/11/18 06:12:42;;;;;;;2.33;0.63;;;10.70;99.90;;;;;;5094163;28;20036;-60
2023/11/18 06:15:14;;;;;;;2.35;0.50;;;10.70;99.90;;;;;;5093987;28;20043;-60
2023/11/18 06:17:41;;;;;;;1.15;0.40;;;10.70;99.90;;;;;;5094561;28;20119;-60
2023/11/18 06:20:10;;;;;;;1.13;0.32;;;10.80;99.90;;;;;;5094717;28;20067;-60
2023/11/18 06:22:37;;;;;;;1.73;0.38;;;10.80;99.90;;;;;;5094180;28;20044;-60
2023/11/18 06:25:07;;;;;;;2.95;0.30;;;10.80;99.90;;;;;;5094592;28;20048;-60
2023/11/18 06:27:34;;;;;;;1.65;0.40;;;10.80;99.90;;;;;;5094482;28;20098;-60
2023/11/18 06:30:01;;;;;;;1.00;0.22;;;10.80;99.90;;;;;;5094417;28;20048;-67
2023/11/18 06:32:28;;;;;;;2.45;0.40;;;10.80;99.90;;;;;;5094213;28;20072;-67
2023/11/18 06:34:55;;;;;;;2.13;0.45;;;10.90;99.90;;;;;;5093875;28;20052;-67
2023/11/18 06:37:23;;;;;;;1.90;0.20;;;10.90;99.90;;;;;;5093047;28;20473;-67
2023/11/18 06:39:50;;;;;;;1.67;0.40;;;10.80;99.90;;;;;;5094356;28;20040;-67
2023/11/18 06:42:17;;;;;;;2.15;0.40;;;10.90;99.90;;;;;;5093692;28;20044;-67
2023/11/18 06:44:44;;;;;;;1.40;0.35;;;10.90;99.90;;;;;;5094517;28;20105;-67
2023/11/18 06:47:12;;;;;;;1.05;0.40;;;10.90;99.90;;;;;;5095298;28;20036;-67
2023/11/18 06:49:40;;;;;;;2.95;0.80;;;10.90;99.90;;;;;;5094220;28;20546;-60
2023/11/18 06:52:10;;;;;;;2.95;0.30;;;11.00;99.90;;;;;;5092860;28;20473;-60
2023/11/18 06:54:37;;;;;;;1.88;0.60;;;11.00;99.90;;;;;;5093857;28;20127;-60
2023/11/18 06:57:04;;;;;;;0.88;0.30;;;11.00;99.90;;;;;;5093817;28;20063;-60
2023/11/18 06:59:31;;;;;;;1.20;0.40;;;11.00;99.90;;;;;;5093789;28;20519;-67
2023/11/18 07:01:58;;;;;;;0.82;0.30;;;11.00;99.90;;;;;;5093835;28;20043;-67
2023/11/18 07:04:25;;;;;;;0.77;0.20;;;11.00;99.90;;;;;;5094010;28;20480;-67
2023/11/18 07:06:52;;;;;;;0.82;0.30;;;11.00;99.90;;;;;;5093765;28;20062;-67
2023/11/18 07:09:20;;;;;;;0.73;0.30;;;11.10;99.90;;;;;;5094110;28;20040;-67
2023/11/18 07:11:48;;;;;;;1.45;0.35;;;11.10;99.90;;;;;;5094071;28;20111;-67
2023/11/18 07:14:15;;;;;;;0.82;0.25;;;11.10;99.90;;;;;;5092974;28;20074;-68
2023/11/18 07:16:42;;;;;;;2.42;0.75;;;11.10;99.90;;;;;;5083319;28;20493;-68
2023/11/18 07:19:28;;;;;;;1.65;0.50;;;11.10;99.90;;;;;;5073535;28;20127;-67
2023/11/18 07:21:55;;;;;;;0.63;0.25;;;11.10;99.90;;;;;;5077816;28;20040;-67
2023/11/18 07:24:22;;;;;;;2.25;0.25;;;11.10;99.90;;;;;;5077459;28;20090;-67
2023/11/18 07:26:50;;;;;;;1.67;0.43;;;11.10;99.90;;;;;;5077797;28;20040;-68
2023/11/18 07:29:18;;;;;;;1.30;0.22;;;11.10;99.90;;;;;;5077368;28;20111;-67
2023/11/18 07:31:45;;;;;;;0.88;0.30;;;11.10;99.90;;;;;;5077648;28;20083;-67
2023/11/18 07:34:12;;;;;;;1.63;0.40;;;11.10;99.90;;;;;;5077075;28;20098;-67
2023/11/18 07:36:39;;;;;;;0.98;0.32;;;11.10;99.90;;;;;;5077114;28;20067;-67
2023/11/18 07:39:15;;;;;;;2.88;0.30;;;11.10;99.90;;;;;;5077416;28;20048;-60
2023/11/18 07:41:42;;;;;;;0.98;0.20;;;11.10;99.90;;;;;;5077426;28;20036;-60
2023/11/18 07:44:12;;;;;;;0.65;0.28;;;11.10;99.90;;;;;;5077048;28;20036;-60
2023/11/18 07:46:42;;;;;;;0.88;0.30;;;11.10;99.90;;;;;;5076918;28;20068;-60
2023/11/18 07:49:09;;;;;;;0.13;0.13;;;11.20;99.90;;;;;;5076955;28;20044;-60
2023/11/18 07:51:40;;;;;;;0.28;0.10;;;11.20;99.90;;;;;;5077360;28;20529;-60
2023/11/18 07:54:07;;;;;;;1.30;0.30;;;11.20;99.90;;;;;;5076865;28;20129;-60
2023/11/18 07:56:36;;;;;;;2.42;0.13;;;11.30;99.90;;;;;;5077023;28;20115;-60
2023/11/18 07:59:03;;;;;;;0.70;0.20;;;11.30;99.90;;;;;;5076960;28;20161;-60
2023/11/18 08:01:30;;;;;;;1.33;0.28;;;11.30;99.90;;;;;;5076906;28;20040;-60
2023/11/18 08:03:57;;;;;;;0.77;0.52;;;11.30;99.90;;;;;;5076940;28;20036;-59
2023/11/18 08:06:26;;;;;;;0.45;0.20;;;11.40;99.90;;;;;;5076821;28;20055;-59
2023/11/18 08:08:54;;;;;;;0.88;0.32;;;11.40;99.90;;;;;;5076688;28;20047;-60
2023/11/18 08:11:20;;;;;;;1.40;0.55;;;11.50;99.90;;;;;;5076767;28;20047;-60
2023/11/18 08:13:47;;;;;;;1.13;0.30;;;11.50;99.90;;;;;;5076479;28;20036;-59
2023/11/18 08:16:15;;;;;;;0.47;0.20;;;11.50;99.90;;;;;;5076235;28;20033;-60
2023/11/18 08:18:42;;;;;;;0.98;0.30;;;11.60;99.90;;;;;;5076693;28;20044;-67
2023/11/18 08:21:09;;;;;;;1.05;0.30;;;11.60;99.90;;;;;;5076841;28;20492;-66
2023/11/18 08:23:37;;;;;;;1.45;0.17;;;11.60;99.90;;;;;;5076304;28;20538;-66
2023/11/18 08:26:05;;;;;;;0.32;0.20;;;11.70;99.90;;;;;;5076562;28;20115;-66
2023/11/18 08:28:32;;;;;;;0.28;0.10;;;11.70;99.90;;;;;;5076252;28;20051;-66
2023/11/18 08:31:00;;;;;;;2.05;0.25;;;11.80;99.90;;;;;;5075579;28;20048;-67
2023/11/18 08:33:28;;;;;;;1.73;0.35;;;11.80;99.90;;;;;;5076824;28;20163;-66
2023/11/18 08:35:56;;;;;;;1.55;0.20;;;11.80;99.90;;;;;;5095126;28;20052;-60
2023/11/18 08:38:24;;;;;;;0.40;0.20;;;11.90;99.90;;;;;;5096324;28;20032;-60
2023/11/18 08:40:51;;;;;;;0.75;0.20;;;11.90;99.90;;;;;;5096216;28;20048;-60
2023/11/18 08:43:20;;;;;;;1.60;0.30;;;11.90;99.90;;;;;;5094876;28;20516;-60
2023/11/18 08:45:47;;;;;;;0.93;0.20;;;12.00;99.90;;;;;;5095167;28;20056;-60
2023/11/18 08:48:16;;;;;;;0.95;0.28;;;12.00;99.90;;;;;;5096271;28;20044;-59
2023/11/18 08:50:43;;;;;;;0.65;0.13;;;12.10;99.90;;;;;;5096002;28;20047;-60
2023/11/18 08:53:11;;;;;;;1.10;0.20;;;12.10;99.90;;;;;;5096054;28;20051;-60
2023/11/18 08:55:39;;;;;;;1.63;0.30;;;12.20;99.90;;;;;;5096145;28;20464;-61
2023/11/18 08:58:27;;;;;;;0.88;0.20;;;12.20;99.90;;;;;;5094533;28;20500;-59
2023/11/18 09:00:55;;;;;;;1.17;0.30;;;12.30;99.90;;;;;;5096158;28;20127;-60
2023/11/18 09:03:27;;;;;;;1.45;0.40;;;12.30;99.90;;;;;;5095845;28;20073;-60
2023/11/18 09:05:58;;;;;;;0.93;0.30;;;12.40;99.90;;;;;;5095785;28;20044;-60
2023/11/18 09:08:26;;;;;;;1.70;0.40;;;12.40;99.90;;;;;;5095353;28;20522;-60
2023/11/18 09:10:53;;;;;;;1.33;0.40;;;12.40;99.90;;;;;;5095769;28;20119;-60
2023/11/18 09:13:20;;;;;;;1.65;0.55;;;12.50;99.90;;;;;;5095604;28;20515;-61
2023/11/18 09:15:47;;;;;;;2.45;0.45;;;12.50;99.90;;;;;;5095924;28;20040;-60
2023/11/18 09:18:14;;;;;;;2.15;0.70;;;12.60;99.90;;;;;;5095573;28;20032;-60
2023/11/18 09:20:41;;;;;;;2.15;0.77;;;12.60;99.90;;;;;;5095649;28;20085;-59
2023/11/18 09:23:09;;;;;;;1.30;0.30;;;12.70;99.90;;;;;;5095461;28;20082;-59
2023/11/18 09:25:36;;;;;;;1.85;0.50;;;12.70;99.90;;;;;;5095150;28;20048;-60
2023/11/18 09:28:03;;;;;;;1.60;0.57;;;12.80;99.90;;;;;;5095468;28;20388;-60
2023/11/18 09:30:31;;;;;;;1.55;0.40;;;12.80;99.90;;;;;;5095055;28;20422;-60
2023/11/18 09:32:58;;;;;;;2.10;0.60;;;12.80;99.90;;;;;;5095245;28;20040;-59
2023/11/18 09:35:27;;;;;;;0.82;0.35;;;12.90;99.90;;;;;;5095308;28;20059;-66
2023/11/18 09:37:54;;;;;;;1.65;0.50;;;12.90;99.90;;;;;;5095416;28;20035;-67
2023/11/18 09:40:24;;;;;;;1.17;0.40;;;13.00;99.90;;;;;;5095083;28;20072;-66
2023/11/18 09:42:51;;;;;;;1.23;0.30;;;13.00;99.90;;;;;;5094914;28;20101;-67
2023/11/18 09:45:20;;;;;;;1.33;0.40;;;13.00;99.90;;;;;;5095148;28;20132;-66
2023/11/18 09:47:53;;;;;;;3.20;0.45;;;13.10;99.90;;;;;;5095230;28;20040;-67
2023/11/18 09:50:20;;;;;;;1.23;0.40;;;13.10;99.90;;;;;;5094648;28;20534;-66
2023/11/18 09:52:51;;;;;;;1.73;0.40;;;13.10;99.90;;;;;;5095100;28;20378;-67
2023/11/18 09:55:19;;;;;;;1.13;0.40;;;13.20;99.90;;;;;;5094633;28;20043;-66
2023/11/18 09:57:46;;;;;;;2.38;0.40;;;13.20;99.90;;;;;;5093588;28;20048;-68
2023/11/18 10:00:47;;;;;;;2.50;0.40;;;13.30;99.90;;;;;;5093994;28;20089;-65
2023/11/18 10:03:08;;;;;;;0.93;0.50;;;13.30;99.90;;;;;;5093747;28;20060;-66
2023/11/18 10:05:36;;;;;;;1.77;0.40;;;13.30;99.90;;;;;;5093825;28;20435;-66
2023/11/18 10:08:05;;;;;;;2.20;0.47;;;13.40;99.90;;;;;;5094628;28;20424;-66
2023/11/18 10:10:45;;;;;;;0.93;0.40;;;13.40;99.90;;;;;;5094404;28;20374;-66
2023/11/18 10:13:22;;;;;;;2.17;0.60;;;13.40;99.90;;;;;;5094569;28;20081;-65
2023/11/18 10:15:52;;;;;;;2.13;0.40;;;13.50;99.90;;;;;;5094450;28;20123;-66
2023/11/18 10:18:22;;;;;;;2.45;0.50;;;13.60;99.90;;;;;;5094061;28;20032;-66
2023/11/18 10:20:53;;;;;;;1.02;0.45;;;13.60;99.90;;;;;;5094662;28;20039;-66
2023/11/18 10:23:20;;;;;;;1.77;0.52;;;13.60;99.90;;;;;;5094517;28;20048;-66
2023/11/18 10:25:48;;;;;;;1.92;0.40;;;13.70;99.90;;;;;;5094269;28;20127;-66
2023/11/18 10:28:15;;;;;;;2.33;0.50;;;13.70;99.90;;;;;;5094086;28;20048;-66
2023/11/18 10:30:42;;;;;;;2.67;0.60;;;13.70;99.90;;;;;;5093925;28;20040;-65
2023/11/18 10:33:09;;;;;;;2.40;0.57;;;13.80;99.90;;;;;;5094217;28;20044;-65
2023/11/18 10:35:37;;;;;;;2.72;0.60;;;13.80;99.90;;;;;;5093654;28;20126;-66
2023/11/18 10:38:06;;;;;;;2.80;0.70;;;13.80;99.90;;;;;;5093994;28;20044;-66
2023/11/18 10:40:37;;;;;;;1.77;0.50;;;13.80;99.90;;;;;;5094320;28;20040;-66
2023/11/18 10:43:09;;;;;;;3.20;0.60;;;13.80;99.90;;;;;;5094277;28;20036;-66
2023/11/18 10:45:38;;;;;;;5.28;1.10;;;13.80;99.90;;;;;;5094134;28;20082;-65
2023/11/18 10:48:09;;;;;;;3.28;0.60;;;13.90;99.90;;;;;;5093992;28;20038;-66
2023/11/18 10:50:35;;;;;;;1.67;0.43;;;13.90;99.90;;;;;;5093719;28;20397;-66
2023/11/18 10:53:03;;;;;;;3.05;0.50;;;13.90;99.90;;;;;;5093589;28;20119;-65
2023/11/18 10:55:33;;;;;;;2.40;0.80;;;13.90;99.90;;;;;;5093283;28;20039;-66
2023/11/18 10:58:00;;;;;;;3.05;0.70;;;13.90;99.90;;;;;;5093656;28;20118;-66
2023/11/18 11:00:33;;;;;;;2.13;0.40;;;13.90;99.90;;;;;;5093989;28;20039;-66
2023/11/18 11:03:00;;;;;;;36.45;3.40;;;14.00;99.90;;;;;;5093772;28;20457;-60
2023/11/18 11:05:31;;;;;;;5.05;0.90;;;13.90;99.90;;;;;;5093895;28;20476;-59
2023/11/18 11:07:59;;;;;;;1.73;0.60;;;14.00;99.90;;;;;;5092339;28;20400;-59
2023/11/18 11:10:28;;;;;;;2.20;0.73;;;14.00;99.90;;;;;;5093926;28;20075;-59
2023/11/18 11:12:56;;;;;;;6.50;0.85;;;14.00;99.90;;;;;;5093864;28;20046;-59
2023/11/18 11:15:22;;;;;;;2.03;0.60;;;14.10;99.90;;;;;;5093372;28;20032;-59
2023/11/18 11:17:49;;;;;;;13.10;1.27;;;14.10;99.90;;;;;;5093405;28;20115;-60
2023/11/18 11:20:32;;;;;;;1.98;0.60;;;14.10;99.90;;;;;;5093811;28;20079;-60
2023/11/18 11:23:03;;;;;;;6.28;0.50;;;14.20;99.90;;;;;;5093517;28;20044;-60
2023/11/18 11:25:31;;;;;;;2.00;1.08;;;14.20;99.90;;;;;;5093660;28;20112;-60
2023/11/18 11:28:01;;;;;;;8.90;6.40;;;14.30;99.90;;;;;;5093360;28;20042;-60
2023/11/18 11:30:31;;;;;;;3.80;0.80;;;14.30;99.90;;;;;;5093767;28;20097;-60
2023/11/18 11:32:58;;;;;;;2.42;0.57;;;14.40;99.90;;;;;;5093352;28;20043;-60
2023/11/18 11:35:26;;;;;;;8.73;4.65;;;14.30;99.90;;;;;;5093088;28;20401;-61
2023/11/18 11:37:54;;;;;;;3.05;0.75;;;14.40;99.90;;;;;;5093200;28;20503;-61
2023/11/18 11:40:23;;;;;;;2.40;0.80;;;14.40;99.90;;;;;;5093470;28;20037;-60
2023/11/18 11:43:01;;;;;;;1.38;0.57;;;14.40;99.90;;;;;;5093335;28;20040;-61
2023/11/18 11:45:31;;;;;;;1.73;0.50;;;14.40;99.90;;;;;;5093541;28;20036;-61
2023/11/18 11:50:43;;;;;;;1.83;0.60;;;14.40;99.90;;;;;;5093402;28;20131;-66
2023/11/18 11:53:13;;;;;;;3.13;0.57;;;14.40;99.90;;;;;;5093328;28;20427;-66
2023/11/18 11:55:44;;;;;;;1.48;0.47;;;14.40;99.90;;;;;;5091827;28;20105;-64
2023/11/18 11:58:12;;;;;;;1.80;0.50;;;14.50;99.90;;;;;;5091834;28;20127;-66
2023/11/18 12:00:42;;;;;;;2.72;0.50;;;14.50;99.90;;;;;;5093381;28;20040;-65
2023/11/18 12:03:10;;;;;;;1.13;0.40;;;14.50;99.90;;;;;;5093227;28;20172;-66
2023/11/18 12:05:43;;;;;;;3.67;0.65;;;14.60;99.90;;;;;;5093498;28;20119;-66
2023/11/18 12:08:13;;;;;;;2.53;0.68;;;14.60;99.90;;;;;;5097231;28;20044;-66
2023/11/18 12:10:40;;;;;;;0.95;0.32;;;14.70;99.90;;;;;;5097222;28;20071;-66
2023/11/18 12:13:08;;;;;;;1.38;0.50;;;14.60;99.90;;;;;;5097387;28;20044;-66
2023/11/18 12:15:35;;;;;;;3.05;0.90;;;14.60;99.90;;;;;;5095941;28;20420;-60
2023/11/18 12:18:03;;;;;;;2.70;0.40;;;14.60;99.90;;;;;;5096611;28;20040;-60
2023/11/18 12:20:30;;;;;;;2.40;0.40;;;14.60;99.90;;;;;;5096696;28;20525;-60
2023/11/18 12:22:58;;;;;;;1.58;0.40;;;14.60;99.90;;;;;;5096405;28;20036;-60
2023/11/18 12:25:27;;;;;;;1.13;0.40;;;14.70;99.90;;;;;;5096717;28;20044;-60
2023/11/18 12:27:54;;;;;;;1.38;0.40;;;14.70;99.90;;;;;;5096555;28;20043;-60
2023/11/18 12:30:29;;;;;;;3.20;0.73;;;14.70;99.90;;;;;;5096901;28;20044;-60
2023/11/18 12:32:55;;;;;;;2.80;0.73;;;14.70;99.90;;;;;;5096721;28;20138;-60
2023/11/18 12:35:22;;;;;;;1.92;0.65;;;14.70;99.90;;;;;;5094971;28;20079;-60
2023/11/18 12:37:49;;;;;;;1.63;0.50;;;14.70;99.90;;;;;;5095070;28;20040;-60
2023/11/18 12:40:17;;;;;;;2.03;0.50;;;14.70;99.90;;;;;;5096734;28;20461;-61
2023/11/18 12:42:44;;;;;;;1.33;0.60;;;14.80;99.90;;;;;;5096486;28;20044;-65
2023/11/18 12:45:14;;;;;;;1.95;0.63;;;14.80;99.90;;;;;;5096290;28;20058;-66
2023/11/18 12:47:41;;;;;;;2.58;0.70;;;14.80;99.90;;;;;;5095976;28;20032;-66
2023/11/18 12:50:07;;;;;;;3.92;0.73;;;14.80;99.90;;;;;;5094834;28;20487;-66
2023/11/18 12:52:34;;;;;;;2.45;0.68;;;14.90;99.90;;;;;;5096476;28;20123;-66
2023/11/18 12:55:01;;;;;;;5.00;0.80;;;14.90;99.90;;;;;;5096110;28;20044;-66
2023/11/18 12:57:31;;;;;;;2.63;0.70;;;14.90;99.90;;;;;;5094872;28;20090;-66